San Gabriel, California
Current Conditions -  °F | °C
As of 12:45 PM on Thursday 18 Dec 2014 (Local Time) from KEMT Reporting Station
Scattered Clouds Scattered Clouds  
Wind Chill: 63°   Ceiling: Unl
Heat Index: 63°   Visibility: 10mi
Dew Point: 43°   Wind: 5mph
Humidity: 48%   Direction: 150°SSE
Pressure: 30.16"   Gusts: NA
Location:  34.1°N, 118.1°W
Report Text: KEMT 182045Z 15004KT 10SM SCT080 17/06 A3016
Loading
Personal Weather Stations






























Interactive Weather Map New forecast layout! Learn more

10-Day Weather Forecast

Advertisements
Track Severe Weather on mobile